Time;durP1;ratioP1;P1;durP2;ratioP2;P2;SDS_P1;SDS_P2;PMS_P1;PMS_P2;Temp;Humidity;BMP_temperature;BMP_pressure;BME280_temperature;BME280_humidity;BME280_pressure;Samples;Min_cycle;Max_cycle;Signal;HPM_P1;HPM_P2
2022/10/24 00:01:41;;;;;;;8.13;2.50;;;;;;;14.50;100.00;100295.22;5277768;28;20032;-69
2022/10/24 00:04:12;;;;;;;14.87;3.03;;;;;;;14.57;100.00;100302.63;5280461;28;20065;-72
2022/10/24 00:06:43;;;;;;;10.23;2.37;;;;;;;14.55;100.00;100286.09;5275219;28;20130;-69
2022/10/24 00:09:14;;;;;;;6.47;2.73;;;;;;;14.47;100.00;100284.94;5277778;28;20036;-69
2022/10/24 00:11:46;;;;;;;8.87;2.20;;;;;;;14.51;100.00;100281.09;5274161;28;20036;-71
2022/10/24 00:14:17;;;;;;;12.93;2.60;;;;;;;14.38;100.00;100267.31;5276840;28;20073;-70
2022/10/24 00:16:49;;;;;;;8.90;3.23;;;;;;;14.58;100.00;100283.19;5254662;28;20025;-71
2022/10/24 00:19:20;;;;;;;6.00;2.33;;;;;;;14.49;100.00;100288.28;5275378;28;20115;-72
2022/10/24 00:21:51;;;;;;;11.33;2.73;;;;;;;14.45;100.00;100286.06;5275386;28;20042;-68
2022/10/24 00:24:24;;;;;;;10.97;2.50;;;;;;;14.46;100.00;100288.56;5258594;28;20028;-69
2022/10/24 00:26:55;;;;;;;13.00;2.20;;;;;;;14.49;100.00;100292.72;5277758;28;20522;-69
2022/10/24 00:29:26;;;;;;;6.67;2.73;;;;;;;14.45;100.00;100284.25;5275684;28;20024;-69
2022/10/24 00:31:58;;;;;;;8.83;2.10;;;;;;;14.40;100.00;100282.00;5274418;28;20052;-69
2022/10/24 00:34:29;;;;;;;9.47;2.20;;;;;;;14.45;100.00;100286.88;5275207;28;20059;-69
2022/10/24 00:37:00;;;;;;;8.03;2.60;;;;;;;14.52;100.00;100293.28;5274813;28;20032;-70
2022/10/24 00:39:32;;;;;;;8.30;1.83;;;;;;;14.44;100.00;100284.38;5275167;28;20510;-69
2022/10/24 00:42:03;;;;;;;9.70;2.70;;;;;;;14.36;100.00;100278.00;5274834;28;20084;-70
2022/10/24 00:44:40;;;;;;;11.40;2.20;;;;;;;14.40;100.00;100281.16;5275682;28;20024;-70
2022/10/24 00:47:25;;;;;;;9.73;2.57;;;;;;;14.39;100.00;100274.25;5255925;28;20118;-70
2022/10/24 00:50:00;;;;;;;6.27;2.30;;;;;;;14.43;100.00;100277.44;5274455;28;20041;-69
2022/10/24 00:52:35;;;;;;;10.37;2.37;;;;;;;14.37;100.00;100268.25;5274323;28;20635;-70
2022/10/24 00:55:07;;;;;;;7.07;1.97;;;;;;;14.36;100.00;100270.09;5274721;28;20032;-69
2022/10/24 00:57:49;;;;;;;7.43;2.30;;;;;;;14.39;100.00;100272.44;5256888;28;20037;-73
2022/10/24 01:00:27;;;;;;;7.67;2.53;;;;;;;14.30;100.00;100275.00;5256785;28;20037;-69
2022/10/24 01:02:59;;;;;;;10.00;2.70;;;;;;;14.44;100.00;100272.03;5272943;28;20560;-70
2022/10/24 01:05:38;;;;;;;6.20;2.10;;;;;;;14.40;100.00;100273.25;5275080;28;20150;-69
2022/10/24 01:08:23;;;;;;;9.83;2.37;;;;;;;14.34;100.00;100266.75;5288702;23;20053;-71
2022/10/24 01:11:32;;;;;;;8.43;2.22;;;;;;;14.35;100.00;100265.75;5252489;28;20036;-70
2022/10/24 01:14:33;;;;;;;7.53;2.30;;;;;;;14.38;100.00;100270.75;5237550;28;20020;-70
2022/10/24 01:17:29;;;;;;;7.27;2.43;;;;;;;14.30;100.00;100267.97;5252246;28;20064;-70
2022/10/24 01:20:16;;;;;;;8.30;2.40;;;;;;;14.32;100.00;100260.75;5253708;28;20025;-71
2022/10/24 01:23:18;;;;;;;12.13;3.30;;;;;;;14.30;100.00;100261.84;5243514;28;20031;-70
2022/10/24 01:26:19;;;;;;;10.57;2.97;;;;;;;14.36;100.00;100253.44;5253904;28;20482;-70
2022/10/24 01:29:04;;;;;;;12.93;2.90;;;;;;;14.39;100.00;100255.81;5203733;28;20052;-69
2022/10/24 01:31:54;;;;;;;6.97;2.70;;;;;;;14.39;100.00;100250.53;5258252;28;20437;-70
2022/10/24 01:34:31;;;;;;;8.57;2.80;;;;;;;14.32;100.00;100254.66;5256614;28;20068;-69
2022/10/24 01:37:08;;;;;;;6.03;2.00;;;;;;;14.32;100.00;100262.56;5257718;28;20519;-69
2022/10/24 01:39:45;;;;;;;10.03;2.10;;;;;;;14.32;100.00;100258.13;5257575;28;20033;-69
2022/10/24 01:42:20;;;;;;;9.67;2.20;;;;;;;14.36;100.00;100253.44;5256242;28;20091;-70
2022/10/24 01:44:56;;;;;;;7.83;2.63;;;;;;;14.32;100.00;100249.38;5256004;28;20031;-69
2022/10/24 01:47:34;;;;;;;8.17;2.40;;;;;;;14.37;100.00;100244.56;5257369;28;20116;-69
2022/10/24 01:50:10;;;;;;;7.53;2.80;;;;;;;14.36;100.00;100235.00;5257252;28;20098;-69
2022/10/24 01:52:44;;;;;;;7.63;2.17;;;;;;;14.35;100.00;100238.56;5257688;28;20031;-70
2022/10/24 01:55:15;;;;;;;8.27;2.00;;;;;;;14.22;100.00;100226.50;5256190;28;20541;-71
2022/10/24 01:57:46;;;;;;;7.90;2.57;;;;;;;14.26;100.00;100219.16;5257038;28;20355;-69
2022/10/24 02:00:20;;;;;;;13.93;2.47;;;;;;;14.35;100.00;100228.03;5257573;28;20013;-70
2022/10/24 02:02:57;;;;;;;6.38;2.03;;;;;;;14.31;100.00;100232.78;5256044;28;20583;-71
2022/10/24 02:05:35;;;;;;;9.67;2.20;;;;;;;14.28;100.00;100235.63;5255755;28;20024;-72
2022/10/24 02:08:13;;;;;;;6.03;1.90;;;;;;;14.23;100.00;100214.97;5256366;28;20132;-69
2022/10/24 02:10:51;;;;;;;8.03;2.20;;;;;;;14.32;100.00;100242.31;5256531;28;20041;-69
2022/10/24 02:13:30;;;;;;;9.47;2.00;;;;;;;14.28;100.00;100233.84;5256498;28;20037;-70
2022/10/24 02:16:03;;;;;;;9.83;1.97;;;;;;;14.27;100.00;100232.19;5256017;28;20036;-69
2022/10/24 02:18:34;;;;;;;7.60;1.90;;;;;;;14.33;100.00;100233.44;5256151;28;20028;-69
2022/10/24 02:21:23;;;;;;;5.40;1.70;;;;;;;14.28;100.00;100231.22;5256327;28;20471;-71
2022/10/24 02:24:16;;;;;;;6.70;1.83;;;;;;;14.26;100.00;100229.69;5256484;28;20071;-69
2022/10/24 02:26:55;;;;;;;8.23;1.97;;;;;;;14.25;100.00;100230.66;5254591;28;20039;-69
2022/10/24 02:29:35;;;;;;;7.97;2.33;;;;;;;14.25;100.00;100231.50;5256937;28;20035;-70
2022/10/24 02:32:12;;;;;;;4.47;2.03;;;;;;;14.23;100.00;100227.31;5255367;28;20031;-69
2022/10/24 02:34:44;;;;;;;6.77;1.73;;;;;;;14.17;100.00;100228.69;5256224;28;20352;-70
2022/10/24 02:37:17;;;;;;;8.77;1.97;;;;;;;14.27;100.00;100231.34;5255556;28;20021;-70
2022/10/24 02:39:50;;;;;;;6.20;2.00;;;;;;;14.22;100.00;100226.50;5256520;28;20617;-70
2022/10/24 02:42:24;;;;;;;6.20;1.67;;;;;;;14.22;100.00;100237.03;5255998;28;20033;-70
2022/10/24 02:44:56;;;;;;;7.43;2.30;;;;;;;14.26;100.00;100243.69;5255710;28;20750;-69
2022/10/24 02:47:29;;;;;;;2.53;1.40;;;;;;;14.30;100.00;100227.59;5255487;28;20349;-69
2022/10/24 02:50:01;;;;;;;12.60;1.83;;;;;;;14.30;100.00;100231.09;5255896;28;20029;-71
2022/10/24 02:52:33;;;;;;;6.07;2.00;;;;;;;14.19;100.00;100224.09;5255960;28;20426;-69
2022/10/24 02:55:05;;;;;;;6.50;1.67;;;;;;;14.27;100.00;100237.47;5254544;28;20033;-69
2022/10/24 02:57:37;;;;;;;10.87;1.80;;;;;;;14.27;100.00;100232.19;5253655;28;20029;-71
2022/10/24 03:00:09;;;;;;;4.40;1.53;;;;;;;14.22;100.00;100233.53;5255290;28;20472;-69
2022/10/24 03:02:41;;;;;;;5.40;1.63;;;;;;;14.34;100.00;100232.50;5256572;28;20028;-70
2022/10/24 03:05:12;;;;;;;4.80;1.70;;;;;;;14.30;100.00;100233.72;5255125;28;20525;-73
2022/10/24 03:07:43;;;;;;;6.73;2.03;;;;;;;14.34;100.00;100236.94;5255459;28;20045;-70
2022/10/24 03:10:14;;;;;;;6.43;1.60;;;;;;;14.23;100.00;100243.94;5255268;28;20068;-72
2022/10/24 03:12:46;;;;;;;6.77;1.90;;;;;;;14.35;100.00;100244.69;5255691;28;20497;-69
2022/10/24 03:15:17;;;;;;;6.77;1.53;;;;;;;14.17;100.00;100212.88;5255584;28;20016;-69
2022/10/24 03:17:49;;;;;;;13.73;2.53;;;;;;;14.36;100.00;100235.84;5254323;28;20368;-72
2022/10/24 03:20:20;;;;;;;8.17;2.03;;;;;;;14.36;100.00;100224.47;5255718;28;20102;-69
2022/10/24 03:22:51;;;;;;;6.57;1.83;;;;;;;14.32;100.00;100228.31;5254838;28;20032;-69
2022/10/24 03:25:23;;;;;;;9.13;1.83;;;;;;;14.27;100.00;100237.47;5255958;28;20545;-72
2022/10/24 03:27:54;;;;;;;5.07;1.50;;;;;;;14.20;100.00;100220.50;5253960;28;20050;-69
2022/10/24 03:30:25;;;;;;;8.50;1.73;;;;;;;14.17;100.00;100217.31;5254979;28;20036;-71
2022/10/24 03:32:57;;;;;;;7.87;1.53;;;;;;;14.17;100.00;100238.38;5254816;28;20048;-69
2022/10/24 03:35:28;;;;;;;7.23;1.83;;;;;;;14.20;100.00;100236.31;5255248;28;20021;-72
2022/10/24 03:37:59;;;;;;;7.37;1.67;;;;;;;14.14;100.00;100228.91;5255692;28;20074;-69
2022/10/24 03:40:30;;;;;;;5.53;1.73;;;;;;;14.23;100.00;100224.66;5255241;28;20040;-69
2022/10/24 03:43:02;;;;;;;8.03;1.93;;;;;;;14.13;100.00;100222.84;5254818;28;20029;-72
2022/10/24 03:45:34;;;;;;;12.40;2.40;;;;;;;14.22;100.00;100223.84;5255103;28;20532;-69
2022/10/24 03:48:05;;;;;;;8.97;2.33;;;;;;;14.18;100.00;100217.16;5254689;28;20166;-69
2022/10/24 03:50:37;;;;;;;7.00;1.77;;;;;;;14.27;100.00;100219.03;5257969;28;20695;-70
2022/10/24 03:53:08;;;;;;;10.63;2.53;;;;;;;14.27;100.00;100212.91;5254105;28;20514;-69
2022/10/24 03:55:40;;;;;;;7.17;2.57;;;;;;;14.34;100.00;100216.69;5253656;28;20036;-71
2022/10/24 03:58:11;;;;;;;7.97;2.50;;;;;;;14.25;100.00;100213.06;5254793;28;20155;-69
2022/10/24 04:00:42;;;;;;;7.47;1.87;;;;;;;14.31;100.00;100222.22;5253508;28;20036;-72
2022/10/24 04:03:13;;;;;;;6.80;1.77;;;;;;;14.30;100.00;100224.97;5252777;28;20502;-70
2022/10/24 04:05:45;;;;;;;5.47;2.00;;;;;;;14.23;100.00;100217.59;5254454;28;20516;-70
2022/10/24 04:08:17;;;;;;;10.17;2.80;;;;;;;14.32;100.00;100228.31;5254623;28;20488;-70
2022/10/24 04:10:48;;;;;;;5.07;1.87;;;;;;;14.21;100.00;100226.59;5253526;28;20036;-72
2022/10/24 04:13:20;;;;;;;6.07;1.77;;;;;;;14.33;100.00;100230.00;5253737;28;20029;-70
2022/10/24 04:15:51;;;;;;;8.23;1.87;;;;;;;14.34;100.00;100224.59;5253254;28;20021;-71
2022/10/24 04:18:23;;;;;;;6.57;2.20;;;;;;;14.34;100.00;100215.84;5254653;28;20025;-72
2022/10/24 04:20:54;;;;;;;9.23;2.00;;;;;;;14.42;100.00;100223.09;5253846;28;20041;-70
2022/10/24 04:23:26;;;;;;;11.77;1.97;;;;;;;14.41;100.00;100211.72;5254411;28;20119;-70
2022/10/24 04:25:57;;;;;;;4.27;1.80;;;;;;;14.39;100.00;100209.22;5254199;28;20052;-71
2022/10/24 04:28:29;;;;;;;11.80;2.90;;;;;;;14.39;100.00;100190.78;5254450;28;20128;-70
2022/10/24 04:31:00;;;;;;;7.33;1.90;;;;;;;14.46;100.00;100212.16;5253308;28;20072;-70
2022/10/24 04:33:31;;;;;;;10.23;1.70;;;;;;;14.44;100.00;100210.63;5254281;28;20499;-70
2022/10/24 04:36:03;;;;;;;9.20;1.43;;;;;;;14.51;100.00;100209.97;5254166;28;20079;-71
2022/10/24 04:38:34;;;;;;;4.77;1.70;;;;;;;14.29;100.00;100218.88;5254208;28;20025;-70
2022/10/24 04:41:06;;;;;;;5.30;2.03;;;;;;;14.28;100.00;100212.78;5254207;28;20039;-71
2022/10/24 04:43:38;;;;;;;5.10;1.60;;;;;;;14.42;100.00;100210.75;5254308;28;20029;-70
2022/10/24 04:46:09;;;;;;;9.87;1.90;;;;;;;14.42;100.00;100220.47;5252808;28;20029;-73
2022/10/24 04:48:40;;;;;;;9.23;2.00;;;;;;;14.40;100.00;100217.94;5254776;28;20056;-72
2022/10/24 04:51:12;;;;;;;4.90;1.50;;;;;;;14.44;100.00;100222.00;5253877;28;20037;-70
2022/10/24 04:53:43;;;;;;;8.57;2.60;;;;;;;14.44;100.00;100226.41;5253472;28;20021;-72
2022/10/24 04:56:14;;;;;;;4.17;1.40;;;;;;;14.46;100.00;100211.31;5253718;28;20082;-70
2022/10/24 04:58:46;;;;;;;7.63;2.07;;;;;;;14.50;100.00;100216.19;5253898;28;20021;-70
2022/10/24 05:01:17;;;;;;;7.63;1.40;;;;;;;14.52;100.00;100216.88;5254741;28;20495;-73
2022/10/24 05:03:48;;;;;;;10.27;2.13;;;;;;;14.52;100.00;100219.53;5257674;28;20123;-71
2022/10/24 05:06:20;;;;;;;8.67;2.10;;;;;;;14.56;100.00;100221.88;5257398;28;20033;-70
2022/10/24 05:08:51;;;;;;;7.00;1.80;;;;;;;14.57;100.00;100215.66;5257454;28;20035;-70
2022/10/24 05:11:22;;;;;;;8.33;1.80;;;;;;;14.57;100.00;100210.41;5257790;28;20475;-70
2022/10/24 05:13:54;;;;;;;10.67;1.90;;;;;;;14.54;100.00;100216.75;5257628;28;20031;-71
2022/10/24 05:16:25;;;;;;;5.60;1.50;;;;;;;14.54;100.00;100221.22;5257086;28;20029;-70
2022/10/24 05:18:56;;;;;;;12.77;1.70;;;;;;;14.50;100.00;100232.00;5256431;28;20024;-73
2022/10/24 05:21:27;;;;;;;8.70;2.10;;;;;;;14.49;100.00;100219.78;5257587;28;20059;-70
2022/10/24 05:23:59;;;;;;;11.07;3.57;;;;;;;14.58;100.00;100226.06;5257878;28;20044;-70
2022/10/24 05:26:30;;;;;;;12.77;2.20;;;;;;;14.55;100.00;100238.66;5257219;28;20036;-72
2022/10/24 05:29:01;;;;;;;7.50;2.20;;;;;;;14.62;100.00;100250.34;5258007;28;20179;-71
2022/10/24 05:31:33;;;;;;;8.90;2.87;;;;;;;14.63;100.00;100246.75;5254842;28;20060;-71
2022/10/24 05:34:04;;;;;;;12.93;2.70;;;;;;;14.54;100.00;100229.13;5257701;28;20424;-70
2022/10/24 05:36:35;;;;;;;6.80;1.67;;;;;;;14.59;100.00;100248.00;5257468;28;20035;-71
2022/10/24 05:39:06;;;;;;;7.63;2.23;;;;;;;14.60;100.00;100262.81;5256907;28;20509;-71
2022/10/24 05:41:38;;;;;;;10.30;2.60;;;;;;;14.66;100.00;100246.47;5257627;28;20102;-68
2022/10/24 05:44:12;;;;;;;10.23;2.33;;;;;;;14.60;100.00;100241.75;5256557;28;20448;-69
2022/10/24 05:46:43;;;;;;;5.65;1.75;;;;;;;14.72;100.00;100251.22;5256180;28;20055;-71
2022/10/24 05:49:15;;;;;;;12.03;2.17;;;;;;;14.69;100.00;100250.66;5257740;28;20037;-68
2022/10/24 05:51:46;;;;;;;12.23;2.77;;;;;;;14.79;100.00;100250.66;5257116;28;20028;-71
2022/10/24 05:54:17;;;;;;;8.23;1.83;;;;;;;14.67;100.00;100242.88;5257806;28;20043;-72
2022/10/24 05:56:49;;;;;;;8.10;2.50;;;;;;;14.81;100.00;100264.59;5256860;28;20056;-71
2022/10/24 05:59:20;;;;;;;6.93;1.63;;;;;;;14.77;100.00;100248.16;5257243;28;20048;-72
2022/10/24 06:01:51;;;;;;;11.10;2.30;;;;;;;14.63;100.00;100241.47;5254680;28;20029;-72
2022/10/24 06:04:22;;;;;;;10.50;2.80;;;;;;;14.61;100.00;100244.25;5260620;28;20028;-70
2022/10/24 06:06:54;;;;;;;5.83;2.00;;;;;;;14.68;100.00;100254.25;5258437;28;20443;-71
2022/10/24 06:09:25;;;;;;;12.50;2.67;;;;;;;14.66;100.00;100253.56;5257163;28;20051;-71
2022/10/24 06:11:56;;;;;;;8.80;2.23;;;;;;;14.76;100.00;100250.00;5255763;28;20102;-71
2022/10/24 06:14:28;;;;;;;11.60;2.27;;;;;;;14.59;100.00;100242.72;5254805;28;20033;-70
2022/10/24 06:16:59;;;;;;;10.10;2.30;;;;;;;14.74;100.00;100265.09;5254309;28;20021;-71
2022/10/24 06:19:31;;;;;;;15.63;2.93;;;;;;;14.65;100.00;100260.63;5255291;28;20041;-71
2022/10/24 06:22:04;;;;;;;13.60;2.43;;;;;;;14.60;100.00;100268.09;5255965;28;20071;-70
2022/10/24 06:24:37;;;;;;;9.87;2.73;;;;;;;14.57;100.00;100277.13;5256621;28;20377;-71
2022/10/24 06:27:08;;;;;;;12.57;2.60;;;;;;;14.60;100.00;100268.94;5254889;28;20029;-71
2022/10/24 06:29:40;;;;;;;10.10;2.40;;;;;;;14.67;100.00;100271.03;5255433;28;20032;-70
2022/10/24 06:32:11;;;;;;;13.33;2.27;;;;;;;14.44;100.00;100264.16;5254970;28;20025;-70
2022/10/24 06:34:43;;;;;;;13.10;2.90;;;;;;;14.52;100.00;100274.84;5254432;28;20021;-71
2022/10/24 06:37:14;;;;;;;10.30;2.67;;;;;;;14.52;100.00;100272.22;5254742;28;20451;-70
2022/10/24 06:39:45;;;;;;;10.60;2.47;;;;;;;14.57;100.00;100281.53;5256321;28;20422;-72
2022/10/24 06:42:16;;;;;;;11.67;2.47;;;;;;;14.51;100.00;100290.78;5256300;28;20124;-70
2022/10/24 06:44:50;;;;;;;9.13;2.50;;;;;;;14.42;100.00;100286.34;5255702;28;20482;-70
2022/10/24 06:47:21;;;;;;;9.73;2.17;;;;;;;14.52;100.00;100287.22;5253684;28;20037;-72
2022/10/24 06:49:52;;;;;;;8.37;2.83;;;;;;;14.55;100.00;100302.75;5242798;28;20372;-70
2022/10/24 06:52:24;;;;;;;11.47;2.93;;;;;;;14.50;100.00;100297.84;5256142;28;20037;-71
2022/10/24 06:54:55;;;;;;;8.27;2.63;;;;;;;14.51;100.00;100312.72;5257540;28;20035;-70
2022/10/24 06:57:26;;;;;;;15.83;3.93;;;;;;;14.59;100.00;100298.06;5253519;28;20059;-70
2022/10/24 06:59:57;;;;;;;9.43;2.70;;;;;;;14.63;100.00;100325.78;5256952;28;20075;-73
2022/10/24 07:02:29;;;;;;;13.93;2.90;;;;;;;14.68;100.00;100333.34;5261183;28;20082;-71
2022/10/24 07:05:00;;;;;;;9.20;2.50;;;;;;;14.60;100.00;100326.91;5255345;28;20024;-70
2022/10/24 07:07:32;;;;;;;11.63;2.97;;;;;;;14.61;100.00;100322.44;5253398;28;20653;-72
2022/10/24 07:10:04;;;;;;;10.27;2.50;;;;;;;14.64;100.00;100324.84;5253393;28;20025;-71
2022/10/24 07:12:35;;;;;;;9.70;2.57;;;;;;;14.55;100.00;100323.00;5256637;28;20079;-70
2022/10/24 07:15:07;;;;;;;11.80;2.37;;;;;;;14.49;100.00;100319.91;5260261;28;20103;-71
2022/10/24 07:17:42;;;;;;;11.33;2.63;;;;;;;14.44;100.00;100321.25;5256647;28;20107;-70
2022/10/24 07:20:14;;;;;;;10.37;2.43;;;;;;;14.50;100.00;100320.75;5253449;28;20040;-71
2022/10/24 07:22:45;;;;;;;8.13;2.03;;;;;;;14.37;100.00;100332.34;5261978;28;20068;-71
2022/10/24 07:25:16;;;;;;;11.17;2.93;;;;;;;14.44;100.00;100340.53;5259503;28;20012;-71
2022/10/24 07:27:51;;;;;;;12.67;2.67;;;;;;;14.52;100.00;100338.09;5264631;28;20059;-71
2022/10/24 07:30:22;;;;;;;11.97;3.00;;;;;;;14.62;100.00;100342.59;5254025;28;20550;-70
2022/10/24 07:32:54;;;;;;;16.40;3.00;;;;;;;14.68;100.00;100351.78;5269727;28;20056;-71
2022/10/24 07:35:26;;;;;;;9.63;2.20;;;;;;;14.56;100.00;100327.28;5264595;28;20055;-70
2022/10/24 07:37:57;;;;;;;14.50;4.40;;;;;;;14.71;100.00;100348.88;5263974;28;20037;-70
2022/10/24 07:40:28;;;;;;;14.13;4.20;;;;;;;14.75;100.00;100353.75;5254247;28;20113;-71
2022/10/24 07:43:00;;;;;;;13.00;2.50;;;;;;;14.74;100.00;100360.00;5269779;28;20574;-70
2022/10/24 07:45:31;;;;;;;12.53;3.07;;;;;;;14.92;100.00;100359.41;5259191;28;20030;-70
2022/10/24 07:48:04;;;;;;;15.57;2.57;;;;;;;14.94;100.00;100365.38;5257089;28;20029;-72
2022/10/24 07:50:42;;;;;;;10.03;3.20;;;;;;;14.98;100.00;100400.22;5247521;28;20033;-71
2022/10/24 07:53:14;;;;;;;13.67;2.47;;;;;;;14.98;100.00;100403.69;5253862;28;20111;-71
2022/10/24 07:55:45;;;;;;;13.27;2.90;;;;;;;14.93;100.00;100390.06;5256050;28;20037;-72
2022/10/24 07:58:16;;;;;;;8.03;2.40;;;;;;;15.03;100.00;100405.13;5254362;28;20081;-71
2022/10/24 08:00:48;;;;;;;6.83;1.97;;;;;;;15.11;100.00;100398.19;5255622;28;20025;-71
2022/10/24 08:03:19;;;;;;;9.37;2.10;;;;;;;15.09;100.00;100409.84;5265700;28;20081;-70
2022/10/24 08:05:55;;;;;;;12.23;2.53;;;;;;;15.10;100.00;100401.81;5271015;28;20078;-71
2022/10/24 08:08:26;;;;;;;8.67;2.00;;;;;;;15.14;100.00;100412.06;5258475;28;20059;-70
2022/10/24 08:10:57;;;;;;;15.30;2.13;;;;;;;15.11;100.00;100418.47;5255547;28;20048;-71
2022/10/24 08:13:29;;;;;;;8.80;2.33;;;;;;;15.22;100.00;100414.91;5261691;28;20488;-71
2022/10/24 08:16:01;;;;;;;13.50;2.60;;;;;;;15.18;100.00;100429.31;5255728;28;20028;-71
2022/10/24 08:18:33;;;;;;;12.07;2.17;;;;;;;15.26;100.00;100429.47;5244241;28;20036;-70
2022/10/24 08:21:07;;;;;;;9.13;2.13;;;;;;;15.31;100.00;100429.91;5251583;28;20025;-72
2022/10/24 08:23:40;;;;;;;;;;;;;;;15.53;100.00;100441.25;5252070;28;20089;-70
2022/10/24 08:26:14;;;;;;;8.30;2.83;;;;;;;15.54;100.00;100444.72;5252633;28;19912;-72
2022/10/24 08:28:46;;;;;;;13.70;3.70;;;;;;;15.53;100.00;100432.50;5252922;28;20033;-71
2022/10/24 08:31:20;;;;;;;8.73;3.03;;;;;;;15.54;100.00;100442.91;5251065;28;20037;-69
2022/10/24 08:33:53;;;;;;;15.60;3.28;;;;;;;15.60;100.00;100444.19;5251816;28;20399;-71
2022/10/24 08:36:28;;;;;;;9.93;2.00;;;;;;;15.65;100.00;100441.97;5273143;28;20071;-71
2022/10/24 08:39:01;;;;;;;10.80;2.10;;;;;;;15.59;100.00;100455.69;5261458;28;20033;-71
2022/10/24 08:41:36;;;;;;;10.10;3.33;;;;;;;15.52;100.00;100446.63;5258603;28;20607;-70
2022/10/24 08:44:28;;;;;;;9.77;2.17;;;;;;;15.62;100.00;100447.53;5259636;28;20037;-71
2022/10/24 08:46:59;;;;;;;12.07;2.67;;;;;;;15.45;100.00;100449.81;5268411;28;20539;-71
2022/10/24 08:49:59;;;;;;;9.30;2.47;;;;;;;15.59;100.00;100467.09;5260173;28;20060;-69
2022/10/24 08:52:38;;;;;;;13.00;2.97;;;;;;;15.54;100.00;100447.34;5263660;28;20052;-70
2022/10/24 08:55:15;;;;;;;8.77;1.90;;;;;;;15.58;100.00;100451.41;5268647;28;20027;-71
2022/10/24 08:57:51;;;;;;;13.03;2.33;;;;;;;16.04;100.00;100456.25;5264181;28;20033;-70
2022/10/24 09:00:26;;;;;;;13.43;2.73;;;;;;;16.79;100.00;100454.81;5259901;28;20098;-70
2022/10/24 09:03:17;;;;;;;12.73;2.53;;;;;;;17.86;100.00;100453.66;5263181;28;20031;-71
2022/10/24 09:05:52;;;;;;;11.37;2.50;;;;;;;18.94;100.00;100459.00;5260351;28;20039;-71
2022/10/24 09:08:59;;;;;;;12.10;2.90;;;;;;;19.97;100.00;100459.09;5262533;28;20041;-70
2022/10/24 09:11:46;;;;;;;9.00;2.50;;;;;;;20.59;92.97;100464.13;5263021;28;20028;-70
2022/10/24 09:14:21;;;;;;;11.45;2.72;;;;;;;21.17;84.40;100469.38;5271709;28;20184;-70
2022/10/24 09:16:57;;;;;;;10.45;2.85;;;;;;;21.66;66.20;100467.47;5266283;28;20041;-70
2022/10/24 09:19:30;;;;;;;8.52;2.30;;;;;;;21.85;63.06;100468.09;5259052;28;20077;-71
2022/10/24 09:22:01;;;;;;;10.75;2.80;;;;;;;22.27;61.00;100476.63;5270726;28;20026;-71
2022/10/24 09:24:49;;;;;;;10.75;3.35;;;;;;;22.36;61.05;100469.38;5260154;28;20037;-70
2022/10/24 09:27:28;;;;;;;10.60;2.83;;;;;;;22.81;59.84;100485.50;5261902;28;20148;-71
2022/10/24 09:29:59;;;;;;;11.27;2.50;;;;;;;22.70;57.65;100467.28;5266349;28;20032;-70
2022/10/24 09:32:34;;;;;;;10.30;2.83;;;;;;;22.86;57.71;100487.66;5259443;28;20047;-71
2022/10/24 09:35:14;;;;;;;10.57;2.05;;;;;;;23.02;56.90;100493.81;5276453;28;20079;-72
2022/10/24 09:37:47;;;;;;;9.93;2.10;;;;;;;22.03;57.85;100489.13;5267630;28;20422;-70
2022/10/24 09:40:19;;;;;;;11.23;2.80;;;;;;;21.21;60.85;100489.31;5264839;28;20035;-70
2022/10/24 09:42:59;;;;;;;8.57;2.72;;;;;;;21.59;61.00;100494.00;5258987;28;20091;-70
2022/10/24 09:45:34;;;;;;;9.93;2.60;;;;;;;21.60;60.68;100500.16;5263430;28;20112;-71
2022/10/24 09:48:16;;;;;;;11.32;3.05;;;;;;;21.87;62.17;100503.41;5259437;28;20025;-70
2022/10/24 09:50:50;;;;;;;13.30;3.22;;;;;;;21.43;62.70;100516.22;5256063;28;20068;-72
2022/10/24 09:53:24;;;;;;;12.85;4.75;;;;;;;21.10;62.80;100505.69;5253463;28;20028;-70
2022/10/24 09:55:57;;;;;;;;;;;;;;;21.81;62.75;100509.41;5270788;28;20107;-70
2022/10/24 09:58:32;;;;;;;21.08;8.93;;;;;;;20.59;63.34;100520.00;5262439;28;20291;-70
2022/10/24 10:01:18;;;;;;;13.10;2.83;;;;;;;20.18;64.36;100524.28;5255926;28;20592;-70
2022/10/24 10:04:01;;;;;;;11.57;3.45;;;;;;;19.99;65.87;100526.22;5254445;28;20051;-71
2022/10/24 10:06:32;;;;;;;12.25;3.47;;;;;;;19.80;65.06;100512.22;5266668;28;20879;-71
2022/10/24 10:09:12;;;;;;;16.48;3.92;;;;;;;19.67;67.21;100530.44;5271035;28;20492;-72
2022/10/24 10:11:53;;;;;;;13.05;4.68;;;;;;;19.37;68.76;100527.31;5258638;28;20029;-71
2022/10/24 10:14:27;;;;;;;15.00;3.90;;;;;;;19.16;69.77;100533.84;5254289;28;20032;-73
2022/10/24 10:17:05;;;;;;;14.90;4.50;;;;;;;19.05;70.19;100546.34;5268886;28;20100;-71
2022/10/24 10:19:37;;;;;;;12.97;3.23;;;;;;;18.72;69.89;100541.63;5256325;28;20111;-72
2022/10/24 10:22:30;;;;;;;8.27;2.50;;;;;;;18.79;71.18;100533.88;5257462;28;20103;-68
2022/10/24 10:25:02;;;;;;;11.27;2.77;;;;;;;18.96;70.71;100549.91;5259237;28;20020;-66
2022/10/24 10:27:35;;;;;;;9.60;3.17;;;;;;;18.96;71.55;100557.88;5259267;28;20039;-68
2022/10/24 10:30:15;;;;;;;10.63;2.85;;;;;;;19.01;71.22;100549.47;5254349;28;20119;-68
2022/10/24 10:33:15;;;;;;;11.43;2.60;;;;;;;19.02;71.10;100546.66;5257904;28;20040;-68
2022/10/24 10:35:46;;;;;;;11.20;2.80;;;;;;;18.97;70.98;100565.69;5250753;28;20124;-69
2022/10/24 10:38:40;;;;;;;12.03;3.13;;;;;;;18.91;70.79;100560.16;5264564;28;20030;-68
2022/10/24 10:41:24;;;;;;;9.98;3.35;;;;;;;18.77;71.33;100564.19;5254088;28;20048;-69
2022/10/24 10:43:58;;;;;;;13.43;3.70;;;;;;;18.61;72.77;100568.38;5251916;28;20048;-71
2022/10/24 10:46:32;;;;;;;;;;;;;;;18.88;72.09;100581.69;5258526;28;20372;-69
2022/10/24 10:49:38;;;;;;;12.10;2.90;;;;;;;18.45;76.28;100580.50;5263013;28;20436;-72
2022/10/24 10:52:23;;;;;;;11.33;3.13;;;;;;;18.14;76.90;100573.72;5263876;28;20024;-69
2022/10/24 10:55:07;;;;;;;9.47;2.60;;;;;;;17.72;82.75;100587.41;5264389;28;20414;-69
2022/10/24 10:58:14;;;;;;;9.45;1.92;;;;;;;17.73;82.01;100586.44;5264823;28;20040;-71
2022/10/24 11:01:12;;;;;;;9.37;2.73;;;;;;;17.71;82.79;100589.25;5267355;28;20083;-70
2022/10/24 11:03:53;;;;;;;9.00;2.93;;;;;;;17.41;86.08;100597.28;5252595;28;20029;-71
2022/10/24 11:06:45;;;;;;;9.03;2.50;;;;;;;17.45;87.44;100602.28;5262355;28;20494;-70
2022/10/24 11:09:52;;;;;;;11.03;2.63;;;;;;;17.45;86.91;100592.53;5253645;28;20049;-71
2022/10/24 11:12:33;;;;;;;11.07;2.73;;;;;;;17.30;87.40;100602.72;5252811;28;20065;-71
2022/10/24 11:15:31;;;;;;;10.53;2.63;;;;;;;17.42;87.83;100601.59;5262611;28;20060;-69
2022/10/24 11:18:11;;;;;;;8.67;2.23;;;;;;;17.51;87.93;100605.19;5259805;28;20087;-68
2022/10/24 11:20:56;;;;;;;11.33;2.87;;;;;;;17.46;89.37;100598.66;5256660;28;20072;-74
2022/10/24 11:23:45;;;;;;;11.83;3.33;;;;;;;17.64;88.30;100596.94;5248440;28;20107;-71
2022/10/24 11:26:30;;;;;;;10.73;2.20;;;;;;;17.68;87.04;100607.25;5253756;28;20059;-69
2022/10/24 11:29:19;;;;;;;;;;;;;;;17.84;86.41;100604.78;5253091;28;20025;-70
2022/10/24 11:31:59;;;;;;;9.13;2.30;;;;;;;17.74;84.69;100604.84;5258582;28;20393;-71
2022/10/24 11:34:36;;;;;;;11.13;3.03;;;;;;;17.82;84.69;100598.00;5256048;28;20028;-71
2022/10/24 11:37:23;;;;;;;13.17;3.70;;;;;;;17.81;84.03;100602.44;5261545;28;20349;-70
2022/10/24 11:40:02;;;;;;;13.67;2.80;;;;;;;17.89;83.86;100607.03;5257227;28;20029;-70
2022/10/24 11:42:59;;;;;;;8.53;2.43;;;;;;;17.99;84.54;100606.97;5262795;28;20099;-71
2022/10/24 11:45:43;;;;;;;11.03;3.10;;;;;;;18.19;84.57;100598.94;5245543;28;20051;-71
2022/10/24 11:48:39;;;;;;;7.25;2.35;;;;;;;18.22;83.53;100598.66;5261368;28;20032;-71
2022/10/24 11:51:42;;;;;;;9.90;3.07;;;;;;;18.41;80.71;100596.84;5255951;28;20029;-69
2022/10/24 11:54:37;;;;;;;9.97;2.53;;;;;;;18.44;77.91;100592.09;5241048;28;20033;-70
2022/10/24 11:57:14;;;;;;;9.23;2.58;;;;;;;18.41;75.09;100589.75;5261890;28;20024;-71